Time;durP1;ratioP1;P1;durP2;ratioP2;P2;SDS_P1;SDS_P2;PMS_P1;PMS_P2;Temp;Humidity;BMP_temperature;BMP_pressure;BME280_temperature;BME280_humidity;BME280_pressure;Samples;Min_cycle;Max_cycle;Signal;HPM_P1;HPM_P2
2020/12/24 00:00:00;;;;;;;14.63;7.07;;;;;;;1.53;84.09;99682.39;1805359;77;21159;-58
2020/12/24 00:02:27;;;;;;;15.77;8.60;;;;;;;1.53;84.01;99686.37;1807399;77;21095;-58
2020/12/24 00:04:54;;;;;;;15.57;8.80;;;;;;;1.51;84.06;99681.08;1798024;77;21103;-59
2020/12/24 00:07:21;;;;;;;15.10;8.67;;;;;;;1.50;84.04;99681.09;1806031;77;21172;-58
2020/12/24 00:09:48;;;;;;;11.07;6.77;;;;;;;1.50;84.02;99681.09;1809352;77;21688;-59
2020/12/24 00:12:16;;;;;;;17.87;9.50;;;;;;;1.50;84.01;99679.31;1806105;77;21227;-59
2020/12/24 00:14:45;;;;;;;13.57;6.90;;;;;;;1.50;84.00;99682.42;1798643;77;21482;-56
2020/12/24 00:17:12;;;;;;;15.03;8.10;;;;;;;1.50;84.01;99677.99;1807579;77;21206;-60
2020/12/24 00:19:39;;;;;;;14.43;8.23;;;;;;;1.53;84.09;99677.93;1805970;77;21174;-57
2020/12/24 00:22:06;;;;;;;18.17;10.00;;;;;;;1.55;84.09;99671.73;1810063;77;21508;-56
2020/12/24 00:24:33;;;;;;;15.87;10.03;;;;;;;1.53;84.09;99669.97;1802693;77;21789;-59
2020/12/24 00:27:01;;;;;;;18.13;10.27;;;;;;;1.55;84.07;99672.61;1805087;77;21747;-59
2020/12/24 00:29:28;;;;;;;19.10;11.40;;;;;;;1.53;84.04;99679.26;1802077;77;21179;-57
2020/12/24 00:31:55;;;;;;;18.27;11.03;;;;;;;1.53;84.03;99673.11;1802506;77;21591;-59
2020/12/24 00:34:23;;;;;;;21.43;11.10;;;;;;;1.56;84.03;99680.13;1804687;77;21224;-57
2020/12/24 00:37:45;;;;;;;17.10;9.93;;;;;;;1.56;84.02;99682.33;1804679;77;21214;-58
2020/12/24 00:40:12;;;;;;;14.23;7.80;;;;;;;1.56;84.00;99674.38;1802839;77;21171;-58
2020/12/24 00:42:39;;;;;;;15.53;8.63;;;;;;;1.55;84.05;99671.28;1814325;77;21182;-57
2020/12/24 00:45:07;;;;;;;19.27;9.67;;;;;;;1.55;84.12;99680.56;1804291;77;21167;-59
2020/12/24 00:47:34;;;;;;;18.40;10.00;;;;;;;1.55;84.11;99681.89;1803701;77;21177;-59
2020/12/24 00:50:03;;;;;;;20.07;10.40;;;;;;;1.54;84.08;99673.50;1801887;77;21171;-57
2020/12/24 00:52:31;;;;;;;17.70;9.50;;;;;;;1.56;84.01;99672.16;1801799;77;21655;-58
2020/12/24 00:54:59;;;;;;;16.90;8.57;;;;;;;1.55;84.03;99671.73;1803965;77;21107;-58
2020/12/24 00:57:26;;;;;;;18.70;9.63;;;;;;;1.55;84.01;99675.27;1751918;80;21199;-56
2020/12/24 00:59:54;;;;;;;15.37;9.57;;;;;;;1.56;84.05;99668.19;1760180;80;21389;-57
2020/12/24 01:02:21;;;;;;;19.90;10.90;;;;;;;1.56;84.06;99673.48;1756738;80;21130;-57
2020/12/24 01:04:48;;;;;;;21.73;10.70;;;;;;;1.56;84.12;99674.81;1802612;77;21131;-59
2020/12/24 01:07:16;;;;;;;19.77;11.07;;;;;;;1.56;84.14;99685.43;1808363;77;21566;-60
2020/12/24 01:09:44;;;;;;;22.13;11.10;;;;;;;1.55;84.14;99682.34;1767691;79;21088;-60
2020/12/24 01:12:15;;;;;;;22.60;11.87;;;;;;;1.53;84.11;99678.41;1757629;79;22103;-56
2020/12/24 01:14:44;;;;;;;20.67;10.73;;;;;;;1.54;84.12;99689.42;1804278;77;21179;-56
2020/12/24 01:17:11;;;;;;;20.20;9.83;;;;;;;1.56;84.09;99684.10;1808961;77;21163;-57
2020/12/24 01:19:38;;;;;;;18.27;9.53;;;;;;;1.56;84.08;99682.78;1804135;77;21218;-58
2020/12/24 01:22:06;;;;;;;18.27;10.80;;;;;;;1.57;84.08;99683.20;1802927;77;21185;-60
2020/12/24 01:24:33;;;;;;;17.20;10.03;;;;;;;1.58;84.11;99687.62;1805643;77;22268;-58
2020/12/24 01:27:00;;;;;;;17.73;10.17;;;;;;;1.59;84.13;99684.08;1811423;77;21199;-57
2020/12/24 01:29:27;;;;;;;24.30;12.20;;;;;;;1.59;84.16;99686.73;1803868;77;22232;-57
2020/12/24 01:31:54;;;;;;;22.57;10.67;;;;;;;1.59;84.13;99689.37;1807193;77;21167;-57
2020/12/24 01:34:21;;;;;;;19.20;10.57;;;;;;;1.55;84.13;99683.22;1800749;77;21801;-57
2020/12/24 01:36:49;;;;;;;19.17;11.13;;;;;;;1.53;84.11;99683.23;1744877;80;21235;-59
2020/12/24 01:39:17;;;;;;;17.57;9.30;;;;;;;1.53;84.12;99681.06;1771803;79;21169;-58
2020/12/24 01:41:47;;;;;;;21.30;11.10;;;;;;;1.55;84.10;99683.67;1757027;79;21127;-56
2020/12/24 01:44:14;;;;;;;15.60;8.80;;;;;;;1.54;84.13;99681.46;1807481;77;22068;-57
2020/12/24 01:46:42;;;;;;;15.30;8.50;;;;;;;1.55;84.17;99677.91;1803348;77;21163;-57
2020/12/24 01:49:11;;;;;;;21.70;9.87;;;;;;;1.57;84.20;99679.23;1810787;77;21777;-60
2020/12/24 01:51:38;;;;;;;21.07;10.10;;;;;;;1.59;84.21;99678.77;1801385;77;21593;-58
2020/12/24 01:54:06;;;;;;;17.37;10.20;;;;;;;1.58;84.24;99670.38;1806047;77;21175;-59
2020/12/24 01:56:33;;;;;;;21.00;9.77;;;;;;;1.57;84.21;99668.17;1804173;77;21720;-58
2020/12/24 01:59:00;;;;;;;19.77;11.13;;;;;;;1.57;84.21;99673.48;1754424;77;21641;-57
2020/12/24 02:01:28;;;;;;;18.63;10.10;;;;;;;1.58;84.25;99673.03;1801782;77;21220;-57
2020/12/24 02:03:55;;;;;;;19.27;9.63;;;;;;;1.59;84.22;99676.11;1803197;77;21238;-57
2020/12/24 02:06:22;;;;;;;16.40;9.73;;;;;;;1.59;84.16;99669.48;1798899;77;21187;-58
2020/12/24 02:08:53;;;;;;;16.97;9.50;;;;;;;1.60;84.23;99668.59;1802706;77;21689;-59
2020/12/24 02:11:20;;;;;;;15.13;7.83;;;;;;;1.60;84.25;99672.13;1803960;77;21190;-60
2020/12/24 02:13:47;;;;;;;16.67;9.17;;;;;;;1.61;84.26;99665.92;1803791;77;21209;-58
2020/12/24 02:16:14;;;;;;;17.63;9.90;;;;;;;1.61;84.30;99662.39;1805733;77;21171;-60
2020/12/24 02:18:41;;;;;;;17.00;8.87;;;;;;;1.60;84.30;99660.63;1742192;80;21202;-56
2020/12/24 02:21:09;;;;;;;19.90;9.33;;;;;;;1.59;84.31;99662.84;1751960;80;21997;-60
2020/12/24 02:23:36;;;;;;;16.67;9.60;;;;;;;1.58;84.37;99663.30;1753493;79;21219;-57
2020/12/24 02:26:03;;;;;;;17.07;9.57;;;;;;;1.57;84.37;99661.98;1807712;77;21493;-58
2020/12/24 02:28:30;;;;;;;14.80;8.13;;;;;;;1.56;84.37;99665.09;1746275;80;21397;-60
2020/12/24 02:30:58;;;;;;;14.50;8.63;;;;;;;1.60;84.35;99659.30;1743188;80;21175;-59
2020/12/24 02:33:25;;;;;;;17.80;9.10;;;;;;;1.60;84.33;99650.89;1762448;79;21218;-59
2020/12/24 02:35:52;;;;;;;16.23;8.63;;;;;;;1.61;84.34;99656.63;1747002;80;21216;-60
2020/12/24 02:38:20;;;;;;;21.07;9.97;;;;;;;1.62;84.36;99656.16;1746056;79;22829;-60
2020/12/24 02:40:47;;;;;;;20.73;8.60;;;;;;;1.63;84.41;99656.58;1769804;79;21242;-60
2020/12/24 02:43:14;;;;;;;20.97;9.77;;;;;;;1.63;84.45;99656.58;1753062;79;21194;-59
2020/12/24 02:45:41;;;;;;;14.47;8.57;;;;;;;1.62;84.48;99656.16;1752547;79;21198;-60
2020/12/24 02:48:09;;;;;;;18.67;9.53;;;;;;;1.61;84.52;99657.96;1808531;77;21204;-60
2020/12/24 02:50:36;;;;;;;15.60;7.97;;;;;;;1.59;84.53;99661.08;1801342;77;21552;-59
2020/12/24 02:53:03;;;;;;;13.57;7.53;;;;;;;1.57;84.47;99671.27;1809170;77;21198;-59
2020/12/24 02:55:31;;;;;;;11.00;7.13;;;;;;;1.56;84.49;99668.19;1804874;77;21219;-58
2020/12/24 02:57:58;;;;;;;13.77;7.63;;;;;;;1.56;84.51;99667.73;1804565;77;22029;-59
2020/12/24 03:00:25;;;;;;;11.97;7.13;;;;;;;1.57;84.55;99659.33;1805132;77;21637;-59
2020/12/24 03:02:52;;;;;;;12.93;7.57;;;;;;;1.58;84.62;99661.09;1802693;78;21275;-59
2020/12/24 03:05:19;;;;;;;10.87;6.07;;;;;;;1.59;84.68;99662.41;1801885;77;21341;-57
2020/12/24 03:07:50;;;;;;;13.90;8.20;;;;;;;1.59;84.65;99666.37;1804636;77;21136;-56
2020/12/24 03:10:18;;;;;;;15.20;7.73;;;;;;;1.58;84.64;99667.72;1804818;77;21494;-57
2020/12/24 03:12:45;;;;;;;13.87;7.60;;;;;;;1.58;84.68;99655.34;1803965;77;21203;-56
2020/12/24 03:15:12;;;;;;;16.10;7.93;;;;;;;1.58;84.71;99658.44;1751171;80;22091;-56
2020/12/24 03:19:03;;;;;;;13.97;7.27;;;;;;;1.61;84.74;99651.77;1796464;78;26682;-57
2020/12/24 03:21:30;;;;;;;16.57;7.83;;;;;;;1.58;84.67;99651.80;1767504;79;22222;-57
2020/12/24 03:23:58;;;;;;;17.77;8.53;;;;;;;1.60;84.66;99654.00;1764456;78;21893;-56
2020/12/24 03:26:25;;;;;;;22.53;9.30;;;;;;;1.61;84.65;99654.42;1767274;80;21652;-57
2020/12/24 03:28:53;;;;;;;21.00;9.87;;;;;;;1.61;84.63;99654.42;1764278;80;21168;-58
2020/12/24 03:31:23;;;;;;;24.23;9.80;;;;;;;1.61;84.67;99651.33;1703923;82;21781;-58
2020/12/24 03:33:50;;;;;;;22.70;9.63;;;;;;;1.62;84.70;99648.19;1728162;82;21484;-58
2020/12/24 03:36:18;;;;;;;23.63;10.23;;;;;;;1.61;84.69;99650.45;1725671;81;21556;-58
2020/12/24 03:38:45;;;;;;;22.23;10.40;;;;;;;1.59;84.73;99647.81;1737571;81;21627;-58
2020/12/24 03:41:12;;;;;;;18.47;9.70;;;;;;;1.58;84.68;99645.17;1709873;81;21235;-58
2020/12/24 03:43:39;;;;;;;15.77;7.80;;;;;;;1.57;84.67;99633.68;1708084;81;21257;-58
2020/12/24 03:46:07;;;;;;;15.20;7.87;;;;;;;1.58;84.67;99628.80;1709863;81;21473;-58
2020/12/24 03:48:35;;;;;;;17.73;8.43;;;;;;;1.59;84.69;99623.94;1705594;83;21609;-58
2020/12/24 03:51:02;;;;;;;16.33;8.00;;;;;;;1.59;84.73;99617.75;1706979;81;21556;-58
2020/12/24 03:53:29;;;;;;;14.30;8.77;;;;;;;1.61;84.73;99631.88;1741703;81;21199;-57
2020/12/24 03:55:57;;;;;;;15.97;8.03;;;;;;;1.61;84.77;99626.57;1737440;81;21573;-58
2020/12/24 03:58:24;;;;;;;18.27;9.63;;;;;;;1.63;84.74;99619.44;1711114;81;21168;-58
2020/12/24 04:00:51;;;;;;;15.60;7.67;;;;;;;1.62;84.80;99619.89;1708984;82;21807;-58
2020/12/24 04:03:18;;;;;;;15.93;8.93;;;;;;;1.61;84.77;99620.81;1711551;82;21210;-58
2020/12/24 04:05:46;;;;;;;17.77;8.20;;;;;;;1.59;84.70;99623.05;1713443;82;21143;-58
2020/12/24 04:08:14;;;;;;;16.80;8.83;;;;;;;1.56;84.73;99625.29;1697210;82;21139;-58
2020/12/24 04:10:41;;;;;;;11.57;7.37;;;;;;;1.56;84.72;99617.78;1690193;82;21629;-57
2020/12/24 04:13:08;;;;;;;17.20;9.17;;;;;;;1.57;84.68;99611.58;1689916;82;21774;-58
2020/12/24 04:15:36;;;;;;;16.53;7.50;;;;;;;1.57;84.71;99614.23;1687049;82;21156;-57
2020/12/24 04:18:04;;;;;;;14.87;7.73;;;;;;;1.58;84.74;99608.03;1678639;82;21429;-56
2020/12/24 04:20:32;;;;;;;14.83;6.80;;;;;;;1.58;84.77;99610.23;1672518;83;21153;-57
2020/12/24 04:22:59;;;;;;;18.07;9.20;;;;;;;1.58;84.78;99609.36;1673209;83;21563;-58
2020/12/24 04:25:27;;;;;;;18.07;9.90;;;;;;;1.56;84.82;99603.19;1673663;83;21221;-56
2020/12/24 04:27:54;;;;;;;21.60;9.53;;;;;;;1.56;84.83;99601.41;1673736;83;21221;-57
2020/12/24 04:30:21;;;;;;;14.33;7.57;;;;;;;1.53;84.78;99607.63;1672262;83;22098;-57
2020/12/24 04:32:49;;;;;;;16.10;7.37;;;;;;;1.52;84.73;99606.36;1669626;83;21241;-57
2020/12/24 04:35:16;;;;;;;16.83;7.83;;;;;;;1.53;84.78;99604.13;1672667;83;21212;-57
2020/12/24 04:37:43;;;;;;;12.03;7.10;;;;;;;1.55;84.76;99610.27;1668280;83;22597;-56
2020/12/24 04:40:10;;;;;;;13.50;7.27;;;;;;;1.55;84.75;99609.39;1670124;83;21199;-57
2020/12/24 04:42:37;;;;;;;15.50;8.07;;;;;;;1.55;84.76;99604.96;1671369;83;21221;-57
2020/12/24 04:45:04;;;;;;;15.20;7.00;;;;;;;1.54;84.77;99601.88;1645688;83;21643;-56
2020/12/24 04:47:32;;;;;;;14.40;7.80;;;;;;;1.53;84.79;99602.80;1674870;83;21241;-57
2020/12/24 04:50:02;;;;;;;15.87;8.33;;;;;;;1.51;84.83;99603.27;1677988;83;21709;-57
2020/12/24 04:52:29;;;;;;;15.90;9.00;;;;;;;1.50;84.82;99597.09;1672866;83;21307;-57
2020/12/24 04:54:57;;;;;;;14.60;7.77;;;;;;;1.53;84.82;99592.64;1674891;84;21252;-57
2020/12/24 04:57:24;;;;;;;15.03;7.77;;;;;;;1.53;84.82;99589.98;1701566;82;21188;-57
2020/12/24 04:59:52;;;;;;;16.20;7.87;;;;;;;1.53;84.82;99593.97;1674138;83;21193;-56
2020/12/24 05:02:19;;;;;;;15.20;8.63;;;;;;;1.53;84.89;99601.00;1654311;84;21218;-56
2020/12/24 05:04:46;;;;;;;21.97;9.47;;;;;;;1.53;84.91;99594.84;1737101;80;21729;-56
2020/12/24 05:07:14;;;;;;;15.97;8.97;;;;;;;1.53;84.93;99604.98;1750177;80;20997;-56
2020/12/24 05:09:41;;;;;;;20.47;10.00;;;;;;;1.54;84.98;99607.19;1744156;80;21118;-56
2020/12/24 05:12:08;;;;;;;17.27;9.33;;;;;;;1.54;84.95;99612.48;1735936;80;21465;-57
2020/12/24 05:14:37;;;;;;;16.23;8.57;;;;;;;1.53;84.92;99607.23;1739265;80;22161;-57
2020/12/24 05:17:06;;;;;;;16.73;8.87;;;;;;;1.53;84.82;99611.61;1660350;80;21232;-56
2020/12/24 05:19:47;;;;;;;17.23;8.47;;;;;;;1.55;84.85;99610.27;1734324;80;21546;-57
2020/12/24 05:22:20;;;;;;;15.47;8.83;;;;;;;1.56;84.87;99612.47;1730627;80;21495;-57
2020/12/24 05:24:47;;;;;;;20.00;9.60;;;;;;;1.57;84.89;99612.45;1733149;80;21165;-56
2020/12/24 05:27:17;;;;;;;19.40;10.17;;;;;;;1.57;84.91;99604.95;1731517;80;22968;-56
2020/12/24 05:29:45;;;;;;;18.10;9.47;;;;;;;1.56;84.96;99604.06;1737143;80;21161;-56
2020/12/24 05:32:12;;;;;;;19.93;11.67;;;;;;;1.55;84.97;99608.06;1732791;80;21197;-56
2020/12/24 05:34:39;;;;;;;17.33;9.50;;;;;;;1.53;84.96;99604.98;1731622;81;21482;-57
2020/12/24 05:37:26;;;;;;;16.67;8.53;;;;;;;1.50;84.94;99605.49;1729004;80;21679;-57
2020/12/24 05:39:53;;;;;;;14.57;8.33;;;;;;;1.50;84.97;99607.70;1629667;86;21382;-57
2020/12/24 05:42:24;;;;;;;17.70;9.33;;;;;;;1.51;84.95;99609.45;1605406;87;21570;-57
2020/12/24 05:44:50;;;;;;;18.07;9.37;;;;;;;1.51;84.93;99608.12;1624043;86;21411;-58
2020/12/24 05:47:28;;;;;;;18.53;10.07;;;;;;;1.53;85.00;99609.89;1609500;86;21244;-57
2020/12/24 05:49:55;;;;;;;15.30;8.50;;;;;;;1.53;85.06;99618.24;1583797;88;21196;-57
2020/12/24 05:52:23;;;;;;;20.03;10.33;;;;;;;1.55;85.04;99617.34;1604496;86;22856;-57
2020/12/24 05:54:50;;;;;;;18.97;10.97;;;;;;;1.55;85.02;99622.66;1604685;87;21244;-57
2020/12/24 05:57:17;;;;;;;19.43;10.27;;;;;;;1.55;85.07;99615.58;1610165;87;21630;-56
2020/12/24 05:59:44;;;;;;;22.73;11.50;;;;;;;1.56;85.01;99612.03;1607552;87;21220;-58
2020/12/24 06:02:17;;;;;;;26.13;12.27;;;;;;;1.54;84.95;99607.19;1600336;86;21246;-57
2020/12/24 06:04:49;;;;;;;21.53;10.27;;;;;;;1.53;84.92;99602.80;1631342;86;21439;-57
2020/12/24 06:07:29;;;;;;;21.77;10.80;;;;;;;1.53;84.90;99600.16;1609761;86;21164;-57
2020/12/24 06:10:04;;;;;;;18.43;10.20;;;;;;;1.55;84.94;99595.68;1626782;85;21223;-56
2020/12/24 06:12:32;;;;;;;17.43;9.67;;;;;;;1.57;84.94;99586.38;1635835;85;21241;-57
2020/12/24 06:15:02;;;;;;;16.90;9.17;;;;;;;1.58;84.86;99586.81;1642909;85;21169;-56
2020/12/24 06:17:30;;;;;;;19.47;10.57;;;;;;;1.60;84.89;99586.34;1627870;85;21897;-57
2020/12/24 06:19:57;;;;;;;20.80;10.77;;;;;;;1.61;84.91;99581.47;1613674;85;21256;-57
2020/12/24 06:22:26;;;;;;;19.37;10.40;;;;;;;1.63;84.99;99588.93;1634795;85;21174;-57
2020/12/24 06:24:55;;;;;;;25.43;11.30;;;;;;;1.63;84.95;99592.46;1633103;86;21082;-57
2020/12/24 06:27:31;;;;;;;19.63;9.83;;;;;;;1.63;84.92;99594.23;1627404;85;21725;-56
2020/12/24 06:30:05;;;;;;;17.43;9.60;;;;;;;1.62;84.93;99586.72;1634948;85;21275;-57
2020/12/24 06:32:34;;;;;;;17.77;9.50;;;;;;;1.64;84.87;99577.42;1642049;85;21540;-57
2020/12/24 06:35:02;;;;;;;19.80;8.97;;;;;;;1.64;84.84;99578.75;1641335;85;21508;-56
2020/12/24 06:37:41;;;;;;;15.70;7.37;;;;;;;1.63;84.81;99576.55;1631809;86;21144;-58
2020/12/24 06:40:32;;;;;;;16.37;8.67;;;;;;;1.64;84.84;99572.11;1660839;84;21207;-57
2020/12/24 06:42:59;;;;;;;14.47;7.17;;;;;;;1.66;84.87;99578.28;1677959;83;21682;-57
2020/12/24 06:45:34;;;;;;;13.97;7.30;;;;;;;1.66;84.86;99576.51;1672025;83;21211;-58
2020/12/24 06:48:27;;;;;;;13.53;7.57;;;;;;;1.65;84.85;99578.73;1667959;83;21195;-58
2020/12/24 06:51:04;;;;;;;16.60;7.53;;;;;;;1.64;84.80;99578.75;1667074;83;22321;-58
2020/12/24 06:53:39;;;;;;;10.73;5.43;;;;;;;1.61;84.80;99574.84;1672604;83;21419;-57
2020/12/24 06:56:21;;;;;;;11.37;5.87;;;;;;;1.62;84.79;99569.93;1678459;83;21199;-58
2020/12/24 06:58:58;;;;;;;11.10;6.00;;;;;;;1.63;84.79;99571.23;1670776;83;21745;-57
2020/12/24 07:01:29;;;;;;;9.93;4.67;;;;;;;1.63;84.74;99568.58;1666347;83;21240;-58
2020/12/24 07:04:00;;;;;;;8.13;4.60;;;;;;;1.65;84.76;99560.61;1669471;84;21791;-59
2020/12/24 07:06:50;;;;;;;7.97;4.47;;;;;;;1.65;84.74;99554.85;1678582;82;21229;-58
2020/12/24 07:09:26;;;;;;;6.40;3.40;;;;;;;1.65;84.70;99557.95;1675312;83;21715;-57
2020/12/24 07:11:54;;;;;;;5.83;2.70;;;;;;;1.65;84.65;99553.97;1668436;83;21215;-56
2020/12/24 07:14:27;;;;;;;7.57;3.53;;;;;;;1.64;84.59;99564.16;1674855;83;21172;-56
2020/12/24 07:17:10;;;;;;;6.17;2.33;;;;;;;1.65;84.59;99565.91;1666741;83;21199;-56
2020/12/24 07:19:41;;;;;;;6.17;3.00;;;;;;;1.67;84.55;99568.98;1680833;83;21639;-56
2020/12/24 07:22:17;;;;;;;3.13;1.70;;;;;;;1.70;84.57;99565.41;1677692;83;23370;-58
2020/12/24 07:24:46;;;;;;;4.67;2.13;;;;;;;1.74;84.56;99560.47;1602209;87;21214;-56
2020/12/24 07:27:14;;;;;;;4.20;2.27;;;;;;;1.75;84.53;99555.14;1672938;84;21567;-56
2020/12/24 07:29:41;;;;;;;6.03;2.63;;;;;;;1.76;84.49;99554.69;1672971;83;21219;-58
2020/12/24 07:32:08;;;;;;;4.27;2.23;;;;;;;1.75;84.42;99556.91;1615456;83;21633;-57
2020/12/24 07:34:36;;;;;;;3.23;1.60;;;;;;;1.76;84.35;99560.00;1675851;83;21211;-58
2020/12/24 07:37:04;;;;;;;5.47;1.77;;;;;;;1.77;84.30;99559.11;1679430;83;20996;-58
2020/12/24 07:39:32;;;;;;;3.80;2.00;;;;;;;1.77;84.30;99556.45;1654622;84;21214;-59
2020/12/24 07:41:59;;;;;;;3.83;1.97;;;;;;;1.78;84.26;99552.90;1672872;84;21187;-59
2020/12/24 07:44:28;;;;;;;5.03;2.33;;;;;;;1.78;84.23;99561.73;1675393;84;21138;-58
2020/12/24 07:47:01;;;;;;;4.17;2.17;;;;;;;1.77;84.23;99561.31;1673855;83;22160;-58
2020/12/24 07:49:29;;;;;;;7.28;3.35;;;;;;;1.77;84.22;99552.47;1673986;84;21951;-60
2020/12/24 07:51:57;;;;;;;6.00;2.23;;;;;;;1.75;84.22;99552.48;1668508;84;21519;-60
2020/12/24 07:54:27;;;;;;;5.20;2.60;;;;;;;1.76;84.12;99550.71;1682081;84;21104;-61
2020/12/24 07:56:55;;;;;;;3.20;2.10;;;;;;;1.75;84.04;99553.81;1675979;84;21247;-59
2020/12/24 07:59:22;;;;;;;5.13;2.17;;;;;;;1.77;84.07;99551.14;1671534;84;21768;-60
2020/12/24 08:01:50;;;;;;;6.40;2.90;;;;;;;1.76;84.00;99561.33;1672928;84;21219;-59
2020/12/24 08:04:18;;;;;;;5.57;2.63;;;;;;;1.76;83.95;99562.66;1681451;84;21557;-59
2020/12/24 08:06:47;;;;;;;5.20;2.67;;;;;;;1.75;83.98;99572.84;1678246;84;21287;-60
2020/12/24 08:09:17;;;;;;;5.63;2.43;;;;;;;1.74;83.96;99576.39;1625846;83;21116;-60
2020/12/24 08:11:57;;;;;;;6.43;3.00;;;;;;;1.72;83.87;99572.88;1667864;83;21230;-60
2020/12/24 08:14:29;;;;;;;6.27;3.53;;;;;;;1.70;83.77;99581.33;1685693;83;21210;-58
2020/12/24 08:17:28;;;;;;;6.80;3.23;;;;;;;1.67;83.81;99580.92;1680051;84;21124;-60
2020/12/24 08:20:07;;;;;;;7.30;2.77;;;;;;;1.67;83.78;99584.90;1676188;84;21994;-59
2020/12/24 08:22:44;;;;;;;6.37;2.47;;;;;;;1.67;83.77;99579.59;1672962;84;21645;-58
2020/12/24 08:25:11;;;;;;;3.80;2.43;;;;;;;1.68;83.76;99580.47;1673148;84;21235;-59
2020/12/24 08:27:39;;;;;;;3.57;1.60;;;;;;;1.65;83.67;99576.52;1670288;84;21203;-59
2020/12/24 08:30:06;;;;;;;5.27;2.17;;;;;;;1.62;83.61;99573.91;1673892;84;21203;-60
2020/12/24 08:32:36;;;;;;;7.67;3.00;;;;;;;1.60;83.62;99571.75;1678927;84;21579;-61
2020/12/24 08:35:12;;;;;;;5.73;2.17;;;;;;;1.58;83.61;99571.77;1639137;84;21500;-60
2020/12/24 08:37:40;;;;;;;3.60;1.93;;;;;;;1.59;83.63;99565.56;1677458;84;21154;-60
2020/12/24 08:40:26;;;;;;;2.73;1.20;;;;;;;1.59;83.61;99559.38;1675545;84;21160;-60
2020/12/24 08:42:58;;;;;;;3.43;1.93;;;;;;;1.58;83.59;99549.66;1673904;84;21657;-58
2020/12/24 08:45:26;;;;;;;3.87;1.50;;;;;;;1.56;83.63;99556.31;1677380;84;21155;-61
2020/12/24 08:47:54;;;;;;;4.27;2.37;;;;;;;1.56;83.69;99541.73;1661596;84;21523;-59
2020/12/24 08:50:35;;;;;;;4.80;2.40;;;;;;;1.56;83.68;99536.87;1667716;84;21346;-60
2020/12/24 08:53:05;;;;;;;3.33;1.77;;;;;;;1.53;83.64;99528.05;1667785;84;21748;-61
2020/12/24 08:55:32;;;;;;;3.17;1.67;;;;;;;1.55;83.64;99528.48;1674446;84;21124;-60
2020/12/24 08:58:00;;;;;;;3.83;1.80;;;;;;;1.56;83.68;99519.63;1667723;84;21132;-61
2020/12/24 09:00:27;;;;;;;2.67;1.13;;;;;;;1.55;83.69;99518.75;1674689;84;21458;-59
2020/12/24 09:02:54;;;;;;;3.47;1.43;;;;;;;1.58;83.76;99509.42;1662378;84;21239;-60
2020/12/24 09:05:23;;;;;;;1.93;1.37;;;;;;;1.60;83.77;99511.61;1670604;84;21638;-61
2020/12/24 09:07:50;;;;;;;3.27;1.77;;;;;;;1.60;83.74;99503.66;1669037;84;21147;-60
2020/12/24 09:10:26;;;;;;;2.30;2.00;;;;;;;1.60;83.71;99503.66;1676330;84;22266;-60
2020/12/24 09:13:00;;;;;;;2.37;1.50;;;;;;;1.63;83.68;99502.70;1669242;84;21136;-61
2020/12/24 09:15:28;;;;;;;2.93;1.77;;;;;;;1.66;83.63;99500.02;1666400;84;21578;-59
2020/12/24 09:17:57;;;;;;;3.80;1.60;;;;;;;1.66;83.59;99503.99;1666932;84;21242;-61
2020/12/24 09:20:31;;;;;;;3.83;1.87;;;;;;;1.68;83.64;99497.77;1677709;83;21510;-60
2020/12/24 09:23:00;;;;;;;4.65;2.47;;;;;;;1.70;83.61;99499.08;1670045;83;21120;-59
2020/12/24 09:25:33;;;;;;;2.87;1.87;;;;;;;1.72;83.62;99496.80;1674953;83;21459;-61
2020/12/24 09:28:01;;;;;;;2.93;1.77;;;;;;;1.73;83.59;99488.39;1681656;83;21380;-62
2020/12/24 09:30:29;;;;;;;2.37;1.20;;;;;;;1.74;83.52;99480.41;1677542;84;21216;-60
2020/12/24 09:32:58;;;;;;;2.30;1.47;;;;;;;1.76;83.43;99482.59;1675526;84;21140;-59
2020/12/24 09:35:27;;;;;;;2.23;1.20;;;;;;;1.77;83.46;99478.16;1672111;84;21228;-60
2020/12/24 09:37:54;;;;;;;2.63;1.40;;;;;;;1.80;83.47;99472.78;1668032;84;21591;-59
2020/12/24 09:40:22;;;;;;;3.90;1.60;;;;;;;1.83;83.45;99465.66;1678308;83;21634;-60
2020/12/24 09:42:49;;;;;;;5.47;2.30;;;;;;;1.85;83.40;99469.62;1670265;84;21890;-59
2020/12/24 09:45:17;;;;;;;3.00;2.37;;;;;;;1.85;83.37;99472.27;1679985;83;21219;-58
2020/12/24 09:47:47;;;;;;;4.63;3.00;;;;;;;1.85;83.39;99476.25;1677042;83;22295;-58
2020/12/24 09:50:14;;;;;;;3.27;2.40;;;;;;;1.85;83.42;99471.82;1678306;83;21203;-58
2020/12/24 09:52:41;;;;;;;3.70;1.87;;;;;;;1.88;83.40;99466.89;1676599;83;21453;-59
2020/12/24 09:55:09;;;;;;;2.73;1.50;;;;;;;1.90;83.32;99459.78;1670641;84;21162;-60
2020/12/24 09:57:36;;;;;;;3.30;1.73;;;;;;;1.92;83.36;99451.34;1673594;84;21612;-59
2020/12/24 10:00:08;;;;;;;2.97;1.33;;;;;;;1.93;83.31;99445.14;1675611;83;22011;-60
2020/12/24 10:02:36;;;;;;;2.00;1.40;;;;;;;1.95;83.29;99442.02;1677168;84;21136;-59
2020/12/24 10:05:05;;;;;;;2.07;1.43;;;;;;;1.96;83.26;99431.79;1683326;83;21634;-59
2020/12/24 10:07:33;;;;;;;3.80;1.70;;;;;;;1.96;83.22;99426.97;1675587;84;21227;-59
2020/12/24 10:10:00;;;;;;;5.20;2.70;;;;;;;1.95;83.20;99427.86;1680996;83;21224;-61
2020/12/24 10:12:30;;;;;;;1.87;1.33;;;;;;;1.93;83.18;99427.01;1663661;83;21217;-59
2020/12/24 10:14:57;;;;;;;2.83;1.40;;;;;;;1.95;83.17;99426.53;1673822;84;21462;-58
2020/12/24 10:17:24;;;;;;;2.87;1.43;;;;;;;1.95;83.17;99414.14;1670227;84;21221;-61
2020/12/24 10:19:55;;;;;;;2.27;1.40;;;;;;;1.95;83.15;99415.92;1674139;83;21561;-59
2020/12/24 10:22:23;;;;;;;2.27;1.43;;;;;;;1.95;83.17;99412.81;1679988;84;21234;-60
2020/12/24 10:24:52;;;;;;;5.33;2.30;;;;;;;1.96;83.21;99405.24;1673823;84;21467;-60
2020/12/24 10:27:19;;;;;;;4.57;2.13;;;;;;;1.97;83.21;99404.80;1672397;83;21202;-61
2020/12/24 10:29:47;;;;;;;5.13;2.80;;;;;;;1.97;83.19;99396.83;1669705;83;21617;-60
2020/12/24 10:32:14;;;;;;;4.43;2.67;;;;;;;1.95;83.16;99396.89;1683310;83;21574;-62
2020/12/24 10:34:41;;;;;;;4.90;3.00;;;;;;;1.95;83.13;99386.27;1677115;84;21664;-62
2020/12/24 10:37:10;;;;;;;5.53;2.83;;;;;;;1.95;83.11;99394.69;1683070;84;21195;-64
2020/12/24 10:39:37;;;;;;;3.53;2.87;;;;;;;1.92;83.06;99390.30;1677955;83;21227;-61
2020/12/24 10:42:04;;;;;;;2.80;1.70;;;;;;;1.89;83.11;99387.24;1680646;83;21234;-62
2020/12/24 10:44:32;;;;;;;4.43;3.17;;;;;;;1.90;83.12;99384.14;1676755;83;21211;-60
2020/12/24 10:46:59;;;;;;;5.43;3.33;;;;;;;1.89;83.10;99376.63;1677038;83;21230;-63
2020/12/24 10:49:26;;;;;;;6.30;3.30;;;;;;;1.88;83.13;99372.67;1678519;83;21598;-60
2020/12/24 10:51:54;;;;;;;5.93;3.53;;;;;;;1.86;83.08;99374.50;1678680;83;21203;-62
2020/12/24 10:54:21;;;;;;;3.83;2.13;;;;;;;1.83;83.10;99371.89;1641151;85;23533;-62
2020/12/24 10:56:49;;;;;;;6.00;2.60;;;;;;;1.83;83.12;99364.81;1654158;85;21215;-64
2020/12/24 10:59:16;;;;;;;5.40;3.10;;;;;;;1.82;83.12;99361.73;1681764;83;21147;-65
2020/12/24 11:01:49;;;;;;;5.20;3.10;;;;;;;1.82;83.14;99364.84;1677097;83;21258;-60
2020/12/24 11:04:17;;;;;;;5.03;2.93;;;;;;;1.83;83.18;99354.64;1681497;83;21246;-62
2020/12/24 11:06:45;;;;;;;6.73;2.87;;;;;;;1.82;83.15;99352.44;1677744;82;21607;-62
2020/12/24 11:09:14;;;;;;;6.57;2.83;;;;;;;1.81;83.22;99349.81;1679291;83;21147;-61
2020/12/24 11:11:41;;;;;;;4.37;2.80;;;;;;;1.80;83.18;99348.06;1674703;83;21646;-61
2020/12/24 11:14:09;;;;;;;3.47;2.40;;;;;;;1.79;83.15;99344.53;1677036;83;21147;-61
2020/12/24 11:16:36;;;;;;;4.00;2.50;;;;;;;1.79;83.16;99337.89;1681939;83;21207;-63
2020/12/24 11:19:03;;;;;;;2.67;1.80;;;;;;;1.81;83.21;99333.44;1689839;83;21743;-62
2020/12/24 11:21:32;;;;;;;5.07;2.37;;;;;;;1.82;83.23;99328.55;1693865;83;21221;-62
2020/12/24 11:24:06;;;;;;;3.47;2.53;;;;;;;1.85;83.21;99327.63;1685223;83;21155;-62
2020/12/24 11:26:38;;;;;;;6.75;3.08;;;;;;;1.83;83.16;99317.04;1679947;83;21281;-63
2020/12/24 11:29:06;;;;;;;5.03;2.53;;;;;;;1.82;83.15;99318.39;1679787;83;22343;-62
2020/12/24 11:31:38;;;;;;;5.97;3.00;;;;;;;1.81;83.14;99320.63;1685522;83;21441;-63
2020/12/24 11:34:05;;;;;;;3.03;2.00;;;;;;;1.81;83.16;99308.23;1677763;83;21470;-64
2020/12/24 11:36:33;;;;;;;3.10;1.53;;;;;;;1.82;83.15;99309.10;1677030;83;21553;-62
2020/12/24 11:39:00;;;;;;;3.90;2.27;;;;;;;1.82;83.16;99294.51;1683298;83;21840;-66
2020/12/24 11:41:29;;;;;;;4.20;2.63;;;;;;;1.83;83.13;99302.89;1680499;83;21219;-60
2020/12/24 11:43:56;;;;;;;4.27;2.50;;;;;;;1.77;83.15;99299.05;1678479;84;23721;-65
2020/12/24 11:46:25;;;;;;;6.27;3.37;;;;;;;1.76;83.22;99298.63;1679204;83;21231;-64